Time;durP1;ratioP1;P1;durP2;ratioP2;P2;SDS_P1;SDS_P2;PMS_P1;PMS_P2;Temp;Humidity;BMP_temperature;BMP_pressure;BME280_temperature;BME280_humidity;BME280_pressure;Samples;Min_cycle;Max_cycle;Signal;HPM_P1;HPM_P2
2022/08/11 00:00:32;;;;;;;;;14.00;14.00;;;;;24.94;38.60;99462.53;6241509;27;97150;-55
2022/08/11 00:03:41;;;;;;;;;15.00;15.00;;;;;24.79;38.92;99456.41;6240221;27;97625;-54
2022/08/11 00:06:47;;;;;;;;;15.00;15.00;;;;;24.82;38.96;99462.16;6237488;28;98216;-54
2022/08/11 00:09:56;;;;;;;;;15.00;15.00;;;;;24.77;39.16;99458.69;6236207;27;97624;-55
2022/08/11 00:13:05;;;;;;;;;14.00;14.00;;;;;24.73;39.28;99471.44;6245524;27;96716;-56
2022/08/11 00:16:13;;;;;;;;;14.00;13.50;;;;;24.68;39.28;99463.25;6236453;27;98898;-54
2022/08/11 00:19:24;;;;;;;;;16.00;14.67;;;;;24.63;39.46;99466.88;6237288;28;97606;-55
2022/08/11 00:22:48;;;;;;;;;14.00;13.60;;;;;24.56;39.58;99460.94;6237455;27;97430;-57
2022/08/11 00:25:57;;;;;;;;;14.00;13.25;;;;;24.48;39.59;99459.66;6232377;27;97262;-56
2022/08/11 00:29:08;;;;;;;;;13.60;13.60;;;;;24.42;39.60;99463.63;6236568;28;96818;-56
2022/08/11 00:32:15;;;;;;;;;14.00;14.00;;;;;24.39;39.74;99463.38;6236278;28;97184;-53
2022/08/11 00:35:27;;;;;;;;;17.00;17.00;;;;;24.33;40.00;99459.09;6236660;27;97414;-57
2022/08/11 00:38:52;;;;;;;;;16.80;15.80;;;;;24.27;40.02;99466.59;6228824;27;96325;-56
2022/08/11 00:42:10;;;;;;;;;20.40;20.40;;;;;24.22;40.04;99463.09;6240702;27;97434;-57
2022/08/11 00:45:23;;;;;;;;;21.00;19.00;;;;;24.16;40.44;99460.41;6234020;27;97743;-55
2022/08/11 00:48:36;;;;;;;;;18.50;18.00;;;;;24.10;40.28;99461.56;6243761;27;97974;-55
2022/08/11 00:52:07;;;;;;;;;19.00;18.40;;;;;24.04;40.45;99459.97;6241025;27;97062;-56
2022/08/11 00:55:36;;;;;;;;;17.00;17.00;;;;;24.00;40.34;99458.94;6240312;27;96836;-53
2022/08/11 00:59:22;;;;;;;;;18.00;17.80;;;;;23.95;40.62;99459.00;6241354;28;97011;-55
2022/08/11 01:03:01;;;;;;;;;22.20;22.20;;;;;23.91;40.74;99459.91;6239970;27;97562;-55
2022/08/11 01:06:31;;;;;;;;;14.40;14.40;;;;;23.87;40.93;99461.59;6226616;28;97024;-53
2022/08/11 01:10:13;;;;;;;;;17.20;16.60;;;;;23.83;40.73;99457.81;6240420;28;97799;-55
2022/08/11 01:13:42;;;;;;;;;18.00;18.00;;;;;23.80;41.08;99463.91;6221167;27;99210;-54
2022/08/11 01:17:16;;;;;;;;;18.00;18.00;;;;;23.74;40.84;99454.91;6239667;27;97632;-56
2022/08/11 01:21:06;;;;;;;;;20.00;19.40;;;;;23.58;40.92;99436.91;6240449;28;96546;-53
2022/08/11 01:24:46;;;;;;;;;22.00;21.00;;;;;23.68;41.17;99459.63;6201872;27;97904;-56
2022/08/11 01:28:37;;;;;;;;;18.80;18.20;;;;;23.64;41.45;99455.00;6239460;28;96833;-53
2022/08/11 01:32:16;;;;;;;;;22.80;21.00;;;;;23.59;41.11;99453.16;6233525;27;96559;-56
2022/08/11 01:35:44;;;;;;;;;19.20;18.20;;;;;23.56;41.49;99450.13;6227329;28;97574;-56
2022/08/11 01:39:29;;;;;;;;;21.80;21.80;;;;;23.50;41.53;99457.66;6240503;27;96434;-55
2022/08/11 01:46:32;;;;;;;;;18.75;18.75;;;;;23.42;41.65;99460.19;6220404;28;97144;-56
2022/08/11 01:49:44;;;;;;;;;25.25;23.25;;;;;23.38;41.80;99453.63;6223946;27;96978;-54
2022/08/11 01:53:26;;;;;;;;;22.00;21.00;;;;;23.35;41.95;99460.53;6232220;27;97116;-56
2022/08/11 01:56:49;;;;;;;;;19.50;18.50;;;;;23.31;42.19;99449.28;6239198;27;97585;-55
2022/08/11 02:00:02;;;;;;;;;20.00;20.00;;;;;23.27;42.15;99456.47;6230803;28;97382;-54
2022/08/11 02:03:13;;;;;;;;;24.00;23.60;;;;;23.06;42.14;99426.72;6233269;28;97458;-56
2022/08/11 02:11:29;;;;;;;;;22.20;21.40;;;;;23.18;42.58;99452.72;6240301;28;97078;-57
2022/08/11 02:13:45;;;;;;;;;23.40;23.40;;;;;23.15;42.31;99449.75;6236218;27;97522;-53
2022/08/11 02:17:15;;;;;;;;;19.40;19.40;;;;;23.12;42.52;99447.56;6238984;27;97439;-56
2022/08/11 02:23:52;;;;;;;;;21.00;21.00;;;;;23.10;42.65;99441.53;6216931;28;97056;-53
2022/08/11 02:27:18;;;;;;;;;24.00;23.50;;;;;23.08;42.70;99449.25;6226211;27;96812;-56
2022/08/11 02:30:27;;;;;;;;;15.60;15.60;;;;;23.07;42.58;99450.34;6237146;27;96622;-54
2022/08/11 02:33:34;;;;;;;;;13.50;13.50;;;;;23.06;42.71;99455.06;6214969;28;96387;-53
2022/08/11 02:36:49;;;;;;;;;22.00;20.60;;;;;23.03;43.04;99452.03;6214260;28;97448;-54
2022/08/11 02:40:10;;;;;;;;;16.75;16.75;;;;;23.01;42.94;99446.84;6214641;27;97416;-53
2022/08/11 02:43:27;;;;;;;;;18.40;17.80;;;;;23.00;43.24;99450.72;6215769;28;97040;-55
2022/08/11 02:46:41;;;;;;;;;25.00;24.40;;;;;23.00;43.21;99447.97;6224865;27;96652;-53
2022/08/11 02:49:54;;;;;;;;;16.80;16.80;;;;;22.99;43.09;99451.81;6225872;27;97652;-54
2022/08/11 02:53:17;;;;;;;;;19.40;19.00;;;;;22.99;43.27;99453.75;6234118;28;97416;-53
2022/08/11 02:56:30;;;;;;;;;27.60;26.60;;;;;23.00;43.12;99444.38;6239075;27;97472;-57
2022/08/11 02:59:53;;;;;;;;;22.00;21.60;;;;;23.01;43.36;99451.53;6240659;28;96620;-56
2022/08/11 03:03:16;;;;;;;;;16.60;16.60;;;;;23.00;43.33;99453.47;6257079;27;97194;-53
2022/08/11 03:06:31;;;;;;;;;23.00;23.00;;;;;22.99;43.26;99456.50;6227727;28;97565;-55
2022/08/11 03:09:46;;;;;;;;;17.75;17.75;;;;;22.97;43.16;99451.28;6226611;28;96766;-53
2022/08/11 03:16:47;;;;;;;;;24.60;23.80;;;;;22.95;43.02;99447.19;6233932;27;97479;-53
2022/08/11 03:20:03;;;;;;;;;15.00;14.00;;;;;22.92;43.36;99453.28;6234061;27;98091;-55
2022/08/11 03:23:13;;;;;;;;;20.40;20.40;;;;;22.84;43.46;99441.78;6226629;27;97453;-55
2022/08/11 03:26:30;;;;;;;;;22.75;22.75;;;;;22.89;43.34;99454.66;6237214;27;96992;-54
2022/08/11 03:29:40;;;;;;;;;27.00;27.00;;;;;22.91;43.73;99457.94;6239460;27;97606;-55
2022/08/11 03:37:04;;;;;;;;;20.80;19.60;;;;;22.91;43.63;99457.94;6225370;28;97058;-54
2022/08/11 03:45:06;;;;;;;;;24.80;24.00;;;;;22.95;43.11;99452.69;6235203;27;97164;-54
2022/08/11 03:48:23;;;;;;;;;25.50;24.50;;;;;22.96;43.25;99446.91;6221653;28;97046;-55
2022/08/11 03:51:35;;;;;;;;;40.00;35.00;;;;;23.00;43.30;99447.13;6241765;27;97776;-55
2022/08/11 03:55:01;;;;;;;;;39.50;35.50;;;;;23.04;43.70;99454.50;6240385;27;96796;-55
2022/08/11 03:58:32;;;;;;;;;47.20;40.40;;;;;23.09;43.53;99451.72;6238248;27;98135;-55
2022/08/11 04:02:26;;;;;;;;;39.50;35.25;;;;;23.13;43.33;99444.53;6233280;28;97414;-54
2022/08/11 04:06:08;;;;;;;;;42.00;37.00;;;;;23.19;43.21;99442.53;6209696;27;96791;-56
2022/08/11 04:10:09;;;;;;;;;47.00;40.75;;;;;23.21;43.07;99441.13;6227537;27;96644;-56
2022/08/11 04:13:41;;;;;;;;;39.00;35.00;;;;;23.33;43.22;99440.75;6194980;27;99240;-54
2022/08/11 04:16:52;;;;;;;;;44.80;38.60;;;;;23.41;43.05;99433.78;6238798;27;97038;-53
2022/08/11 04:20:27;;;;;;;;;42.67;36.67;;;;;23.49;42.88;99435.91;6227687;27;97051;-56
2022/08/11 04:24:04;;;;;;;;;49.60;42.60;;;;;23.58;42.66;99445.16;6225082;27;97250;-59
2022/08/11 04:28:06;;;;;;;;;47.00;40.40;;;;;23.65;42.33;99446.44;6235811;27;97113;-54
2022/08/11 04:31:30;;;;;;;;;37.00;33.00;;;;;23.72;42.65;99448.84;6218414;28;96957;-53
2022/08/11 04:35:17;;;;;;;;;43.50;37.50;;;;;23.78;42.68;99450.44;6233769;27;97342;-53
2022/08/11 04:38:45;;;;;;;;;34.50;31.75;;;;;23.87;42.27;99453.34;6225872;28;96406;-53
2022/08/11 04:46:17;;;;;;;;;31.60;30.00;;;;;24.09;41.85;99453.63;6233234;28;97512;-53
2022/08/11 05:08:39;;;;;;;;;29.60;29.00;;;;;24.92;40.45;99475.00;6182092;28;97516;-56
2022/08/11 05:12:12;;;;;;;;;32.40;30.00;;;;;25.07;40.33;99473.94;6184088;28;97180;-54
2022/08/11 05:36:31;;;;;;;;;21.60;20.60;;;;;25.85;39.38;99480.16;6235185;28;97575;-52
2022/08/11 05:56:59;;;;;;;;;17.00;16.00;;;;;26.30;37.59;99494.16;6225287;27;97535;-55
2022/08/11 06:00:09;;;;;;;;;9.20;8.00;;;;;26.05;37.91;99442.97;6226329;28;97178;-55
2022/08/11 06:03:23;;;;;;;;;15.00;14.00;;;;;26.55;37.61;99490.81;6224723;28;96706;-56
2022/08/11 06:06:28;;;;;;;;;12.40;12.40;;;;;26.65;37.34;99500.81;6238672;27;97264;-56
2022/08/11 06:09:33;;;;;;;;;18.00;17.00;;;;;26.70;37.14;99492.41;6239388;28;96813;-57
2022/08/11 06:12:39;;;;;;;;;18.60;18.00;;;;;26.68;36.86;99475.31;6235575;28;97046;-55
2022/08/11 06:15:47;;;;;;;;;15.00;14.40;;;;;26.90;36.54;99491.94;6223337;28;96903;-55
2022/08/11 06:18:53;;;;;;;;;15.20;14.40;;;;;26.99;36.57;99497.53;6240230;27;98752;-56
2022/08/11 06:21:58;;;;;;;;;18.40;16.60;;;;;27.08;36.10;99504.75;6246168;27;97589;-60
2022/08/11 06:25:03;;;;;;;;;16.75;16.75;;;;;27.15;35.96;99496.84;6234077;28;96718;-59
2022/08/11 06:28:08;;;;;;;;;12.60;11.60;;;;;27.20;35.64;99495.88;6229660;27;97295;-57
2022/08/11 06:31:14;;;;;;;;;13.00;13.00;;;;;27.04;35.56;99476.09;6239326;28;96323;-56
2022/08/11 06:34:31;;;;;;;;;13.00;13.00;;;;;27.32;36.60;99503.63;6239403;28;97386;-52
2022/08/11 06:37:45;;;;;;;;;15.00;14.40;;;;;27.43;35.61;99496.66;6231948;28;97441;-56
2022/08/11 06:44:27;;;;;;;;;15.60;14.60;;;;;27.62;35.94;99499.22;6238301;28;96957;-56
2022/08/11 06:47:31;;;;;;;;;14.00;14.00;;;;;27.78;35.97;99495.72;6233452;28;96792;-56
2022/08/11 06:53:58;;;;;;;;;13.60;13.60;;;;;28.01;34.96;99497.25;6236210;27;97470;-55
2022/08/11 07:00:36;;;;;;;;;12.75;12.00;;;;;28.23;34.98;99499.13;6232088;28;97199;-60
2022/08/11 07:03:47;;;;;;;;;12.40;12.20;;;;;28.34;35.02;99502.44;6229257;27;97159;-54
2022/08/11 07:17:28;;;;;;;;;12.00;12.00;;;;;28.67;33.53;99495.25;6225464;28;96591;-53
2022/08/11 07:30:42;;;;;;;;;13.40;13.40;;;;;28.94;33.21;99465.53;6237343;28;97343;-60
2022/08/11 07:33:50;;;;;;;;;15.50;14.50;;;;;29.17;33.00;99492.81;6234770;28;96592;-54
2022/08/11 07:37:16;;;;;;;;;14.60;13.00;;;;;29.20;32.31;99486.56;6236167;27;96959;-56
2022/08/11 07:40:22;;;;;;;;;13.00;13.00;;;;;29.24;32.24;99483.94;6237182;28;97546;-54
2022/08/11 07:43:26;;;;;;;;;11.00;11.00;;;;;29.39;32.84;99485.41;6236149;27;97010;-53
2022/08/11 07:53:15;;;;;;;;;10.00;10.00;;;;;30.03;31.94;99486.97;6236466;28;96679;-57
2022/08/11 07:56:18;;;;;;;;;11.00;11.00;;;;;30.21;31.57;99481.28;6236833;27;96620;-58
2022/08/11 08:20:28;;;;;;;;;10.25;9.00;;;;;31.13;29.55;99488.41;6233636;27;97131;-60
2022/08/11 08:23:33;;;;;;;;;10.00;9.00;;;;;31.24;30.18;99477.66;6232398;27;97412;-56
2022/08/11 08:33:23;;;;;;;;;12.00;11.40;;;;;31.50;29.60;99477.38;6230390;28;96530;-55
2022/08/11 08:36:27;;;;;;;;;11.00;10.60;;;;;31.65;30.12;99474.75;6233508;28;96812;-55
2022/08/11 08:39:33;;;;;;;;;10.00;10.00;;;;;31.81;28.92;99469.31;6231271;28;97599;-56
2022/08/11 08:42:43;;;;;;;;;11.00;10.80;;;;;31.88;28.40;99472.31;6230256;27;96945;-54
2022/08/11 08:45:48;;;;;;;;;10.00;9.50;;;;;32.05;28.27;99462.91;6230454;28;96972;-61
2022/08/11 08:48:53;;;;;;;;;10.00;9.00;;;;;32.15;28.16;99454.09;6226121;28;97406;-57
2022/08/11 08:52:01;;;;;;;;;10.00;10.00;;;;;32.32;28.18;99458.59;6222383;28;97577;-53
2022/08/11 08:55:28;;;;;;;;;8.60;7.20;;;;;32.50;27.47;99448.78;6229928;28;96568;-57
2022/08/11 08:58:36;;;;;;;;;7.25;7.25;;;;;32.53;27.18;99429.34;6230160;28;96906;-54
2022/08/11 09:01:47;;;;;;;;;7.00;7.00;;;;;32.73;27.08;99452.69;6234025;28;96828;-52
2022/08/11 09:04:52;;;;;;;;;6.20;6.20;;;;;32.89;26.57;99438.78;6234835;28;97140;-55
2022/08/11 09:07:57;;;;;;;;;10.00;10.00;;;;;32.99;26.43;99444.63;6239402;28;98211;-55
2022/08/11 09:14:59;;;;;;;;;8.00;8.00;;;;;33.22;26.12;99444.09;6234160;27;97441;-57
2022/08/11 09:17:55;;;;;;;;;9.75;9.25;;;;;33.19;25.05;99430.81;6229889;27;98150;-60
2022/08/11 09:20:59;;;;;;;;;10.00;10.00;;;;;33.20;24.84;99438.84;6234499;28;97393;-55
2022/08/11 09:27:30;;;;;;;;;9.00;8.50;;;;;33.10;26.03;99425.38;6238687;28;96563;-55
2022/08/11 09:30:33;;;;;;;;;8.80;8.80;;;;;33.16;25.81;99423.97;6223366;28;97112;-61
2022/08/11 09:33:38;;;;;;;;;11.00;10.40;;;;;33.29;25.69;99428.31;6215180;28;97007;-56
2022/08/11 09:46:59;;;;;;;;;7.80;7.80;;;;;33.69;24.37;99419.75;6232339;28;97197;-54
2022/08/11 09:50:05;;;;;;;;;6.20;6.20;;;;;33.75;23.95;99414.72;6237623;27;96897;-56
2022/08/11 09:53:11;;;;;;;;;8.40;8.40;;;;;33.82;23.61;99412.06;6236488;27;97431;-56
2022/08/11 09:59:57;;;;;;;;;9.40;9.40;;;;;33.80;23.12;99403.25;6232711;28;97609;-61
2022/08/11 10:03:18;;;;;;;;;8.00;8.00;;;;;33.91;23.93;99401.53;6235713;28;96552;-59
2022/08/11 10:09:49;;;;;;;;;8.00;8.00;;;;;33.94;23.34;99403.56;6239008;28;96482;-58
2022/08/11 10:12:58;;;;;;;;;8.80;8.80;;;;;33.89;23.30;99396.28;6236553;27;96501;-58
2022/08/11 10:16:08;;;;;;;;;6.75;6.75;;;;;33.91;23.31;99393.94;6225100;27;97418;-60
2022/08/11 10:19:20;;;;;;;;;5.00;5.00;;;;;33.90;22.54;99388.69;6214470;28;96964;-54
2022/08/11 10:33:58;;;;;;;;;9.40;9.40;;;;;34.17;22.21;99356.09;6215386;27;96803;-57
2022/08/11 10:36:05;;;;;;;;;7.00;6.00;;;;;33.96;22.51;99358.47;6236304;28;96925;-60
2022/08/11 10:39:21;;;;;;;;;9.00;9.00;;;;;33.86;22.64;99345.84;6238747;28;98938;-55
2022/08/11 10:49:33;;;;;;;;;8.20;8.20;;;;;34.16;22.06;99338.50;6239430;28;97061;-57
2022/08/11 10:59:26;;;;;;;;;8.00;8.00;;;;;34.25;22.27;99330.75;6232570;28;96953;-56
2022/08/11 11:02:30;;;;;;;;;8.60;8.60;;;;;34.34;22.27;99330.53;6234889;28;97083;-61
2022/08/11 11:05:39;;;;;;;;;6.00;6.00;;;;;34.29;21.43;99330.81;6235310;28;99088;-56
2022/08/11 11:09:07;;;;;;;;;9.00;9.00;;;;;34.22;21.90;99330.66;6236862;28;97401;-61
2022/08/11 11:19:10;;;;;;;;;6.00;6.00;;;;;33.86;23.50;99338.28;6120589;28;99465;-58
2022/08/11 11:26:06;;;;;;;;;9.00;9.00;;;;;33.51;23.08;99341.03;6232417;27;96883;-54
2022/08/11 11:29:24;;;;;;;;;8.00;8.00;;;;;33.37;24.49;99337.91;6211739;28;97149;-57
2022/08/11 11:32:37;;;;;;;;;8.40;8.00;;;;;33.34;24.63;99335.81;6231046;28;96586;-56
2022/08/11 11:35:49;;;;;;;;;6.00;6.00;;;;;33.38;24.85;99333.13;6237958;27;97443;-55
2022/08/11 11:38:55;;;;;;;;;8.00;8.00;;;;;33.44;24.97;99326.06;6238309;28;96953;-54
2022/08/11 11:42:02;;;;;;;;;7.00;7.00;;;;;33.51;24.47;99324.25;6235381;28;97081;-59
2022/08/11 11:45:07;;;;;;;;;5.50;5.50;;;;;33.62;24.65;99316.13;6213106;28;97601;-60
2022/08/11 11:48:12;;;;;;;;;5.75;5.75;;;;;33.78;24.30;99308.50;6212382;28;96920;-56
2022/08/11 11:51:15;;;;;;;;;6.00;5.00;;;;;34.00;24.59;99303.38;6212745;28;97442;-55
2022/08/11 11:54:25;;;;;;;;;7.00;7.00;;;;;34.10;22.61;99298.03;6229331;28;97464;-55
2022/08/11 12:01:18;;;;;;;;;7.00;7.00;;;;;34.00;21.46;99272.63;6211952;28;97549;-57
2022/08/11 12:04:23;;;;;;;;;5.00;4.00;;;;;33.96;20.47;99269.75;6224647;27;97061;-54
2022/08/11 12:14:27;;;;;;;;;7.00;7.00;;;;;33.53;22.47;99272.75;6251084;27;97231;-56
2022/08/11 12:17:31;;;;;;;;;9.20;9.20;;;;;33.49;23.18;99267.88;6237239;28;97451;-59
2022/08/11 12:20:35;;;;;;;;;9.00;8.00;;;;;33.58;23.68;99267.66;6236499;27;96986;-54
2022/08/11 12:27:22;;;;;;;;;7.00;7.00;;;;;33.74;25.37;99281.63;6211443;28;97482;-58
2022/08/11 12:30:28;;;;;;;;;7.00;7.00;;;;;33.76;24.40;99298.88;6213010;28;97639;-57
2022/08/11 12:33:32;;;;;;;;;7.40;7.40;;;;;33.72;25.67;99306.38;6234507;28;96951;-59
2022/08/11 12:36:43;;;;;;;;;7.00;7.00;;;;;33.63;26.92;99302.91;6238459;27;97061;-60
2022/08/11 12:47:01;;;;;;;;;8.00;7.40;;;;;33.10;27.09;99296.84;6240282;28;97472;-58
2022/08/11 12:53:29;;;;;;;;;7.40;7.40;;;;;32.05;27.49;99309.50;6229565;27;96661;-57
2022/08/11 13:07:01;;;;;;;;;13.00;13.00;;;;;30.03;32.26;99374.91;6157222;28;97104;-61
2022/08/11 13:10:08;;;;;;;;;12.00;12.00;;;;;29.66;32.52;99376.63;6163234;28;96987;-59
2022/08/11 13:13:14;;;;;;;;;10.50;10.50;;;;;29.33;34.06;99372.84;6157734;28;97184;-60
2022/08/11 13:19:58;;;;;;;;;16.40;16.00;;;;;28.80;35.27;99368.59;6161513;28;97390;-63
2022/08/11 13:23:03;;;;;;;;;9.00;8.40;;;;;28.57;35.51;99367.16;6148042;28;97038;-58
2022/08/11 13:26:07;;;;;;;;;12.00;11.60;;;;;28.39;36.18;99367.16;6162564;28;96707;-57
2022/08/11 13:29:13;;;;;;;;;9.40;8.60;;;;;28.23;37.30;99359.69;6158574;28;97505;-60
2022/08/11 13:32:25;;;;;;;;;17.20;17.20;;;;;28.08;37.74;99360.94;6148692;28;97705;-56
2022/08/11 13:35:30;;;;;;;;;11.60;11.60;;;;;27.96;38.50;99358.00;6160122;28;97363;-58
2022/08/11 13:38:34;;;;;;;;;16.20;16.20;;;;;27.82;38.80;99349.03;6237819;28;97173;-59
2022/08/11 13:41:40;;;;;;;;;15.40;15.40;;;;;27.65;39.20;99351.78;6235529;28;97041;-55
2022/08/11 13:44:44;;;;;;;;;12.50;12.50;;;;;27.47;40.24;99354.47;6230896;28;97792;-55
2022/08/11 13:47:51;;;;;;;;;24.25;24.25;;;;;27.39;40.94;99337.81;6228187;28;97521;-57
2022/08/11 13:54:23;;;;;;;;;12.00;11.25;;;;;27.19;40.68;99325.38;6233929;28;97087;-59
2022/08/11 13:57:26;;;;;;;;;8.00;8.00;;;;;27.16;41.37;99331.56;6234943;27;96968;-57
2022/08/11 14:00:52;;;;;;;;;8.60;8.60;;;;;27.23;41.26;99336.63;6237609;27;98726;-58
2022/08/11 14:04:03;;;;;;;;;9.00;9.00;;;;;27.28;41.71;99339.25;6235428;27;97481;-60
2022/08/11 14:07:34;;;;;;;;;10.60;10.00;;;;;27.36;42.21;99327.41;6234993;28;97350;-57
2022/08/11 14:10:39;;;;;;;;;10.00;10.00;;;;;27.43;42.15;99325.78;6235756;28;96611;-59
2022/08/11 14:13:44;;;;;;;;;11.00;11.00;;;;;27.54;42.71;99331.88;6232043;27;98671;-60
2022/08/11 14:16:53;;;;;;;;;11.00;10.50;;;;;27.67;42.98;99316.25;6230438;28;97613;-59
2022/08/11 14:20:03;;;;;;;;;9.50;9.50;;;;;27.82;41.83;99311.03;6222235;28;97509;-60
2022/08/11 14:23:31;;;;;;;;;13.00;12.60;;;;;27.99;43.30;99313.03;6224832;28;97373;-55
2022/08/11 14:26:37;;;;;;;;;11.00;11.00;;;;;28.15;42.58;99316.16;6234359;28;96934;-57
2022/08/11 14:29:42;;;;;;;;;11.00;10.60;;;;;28.28;41.76;99313.19;6234067;28;97489;-57
2022/08/11 14:32:51;;;;;;;;;12.00;12.00;;;;;28.42;42.00;99316.59;6232898;28;96876;-55
2022/08/11 14:35:59;;;;;;;;;12.00;12.00;;;;;28.54;41.05;99326.22;6232695;27;96936;-57
2022/08/11 14:39:11;;;;;;;;;12.80;12.80;;;;;28.64;41.93;99315.56;6231460;27;97429;-57
2022/08/11 14:49:01;;;;;;;;;13.00;13.00;;;;;28.93;39.56;99309.28;6232219;27;97617;-59
2022/08/11 14:52:08;;;;;;;;;12.00;12.00;;;;;28.99;38.46;99307.97;6231511;28;97215;-55
2022/08/11 14:58:34;;;;;;;;;11.00;10.00;;;;;29.11;37.25;99305.31;6232836;27;97973;-57
2022/08/11 15:05:00;;;;;;;;;8.00;8.00;;;;;29.10;35.14;99295.34;6236277;27;97392;-57
2022/08/11 15:08:07;;;;;;;;;9.00;9.00;;;;;29.10;36.05;99300.91;6233438;27;98406;-59
2022/08/11 15:18:00;;;;;;;;;12.00;11.40;;;;;29.14;37.21;99290.75;6231845;27;96658;-57
2022/08/11 15:24:27;;;;;;;;;10.20;10.00;;;;;29.13;37.29;99294.66;6228116;27;99072;-57
2022/08/11 15:37:57;;;;;;;;;11.60;10.60;;;;;29.07;37.18;99303.53;6233968;27;97676;-58
2022/08/11 15:48:14;;;;;;;;;11.00;10.40;;;;;28.95;38.31;99286.75;6165585;28;97539;-60
2022/08/11 15:51:22;;;;;;;;;10.00;10.00;;;;;29.00;38.32;99292.13;6162989;28;97091;-57
2022/08/11 15:54:30;;;;;;;;;10.40;10.00;;;;;29.02;38.69;99287.06;6172379;28;97170;-57
2022/08/11 16:04:25;;;;;;;;;10.00;10.00;;;;;29.13;37.51;99280.78;6166906;28;96973;-54
2022/08/11 16:07:34;;;;;;;;;9.00;9.00;;;;;29.14;37.19;99282.41;6159696;28;97750;-56
2022/08/11 16:10:44;;;;;;;;;11.60;11.60;;;;;29.04;37.09;99274.47;6160392;28;98093;-57
2022/08/11 16:17:18;;;;;;;;;8.00;8.00;;;;;29.08;36.85;99271.81;6162377;28;96738;-57
2022/08/11 16:20:24;;;;;;;;;12.00;12.00;;;;;29.03;37.02;99266.50;6161488;28;97052;-59
2022/08/11 16:23:28;;;;;;;;;11.67;11.00;;;;;28.99;37.17;99266.31;6172034;28;97039;-55
2022/08/11 16:26:35;;;;;;;;;11.00;11.00;;;;;29.00;37.66;99265.19;6237767;27;97718;-58
2022/08/11 16:30:01;;;;;;;;;7.20;7.20;;;;;29.00;38.34;99262.41;6229881;27;97588;-56
2022/08/11 16:33:06;;;;;;;;;10.00;9.40;;;;;29.05;38.42;99262.22;6234916;28;96686;-56
2022/08/11 16:39:52;;;;;;;;;10.40;10.40;;;;;28.98;34.62;99256.38;6229922;28;97506;-59
2022/08/11 16:49:45;;;;;;;;;11.00;11.00;;;;;28.71;32.76;99256.78;6229836;28;97784;-59
2022/08/11 16:52:55;;;;;;;;;9.00;9.00;;;;;28.41;33.53;99256.72;6224113;28;97437;-53
2022/08/11 16:56:03;;;;;;;;;8.00;8.00;;;;;28.37;34.96;99266.84;6235753;27;97449;-57
2022/08/11 16:59:13;;;;;;;;;15.00;14.00;;;;;28.23;35.39;99269.00;6220572;28;97600;-60
2022/08/11 17:16:06;;;;;;;;;12.60;12.60;;;;;27.62;36.93;99258.22;6230517;28;97270;-59
2022/08/11 17:19:17;;;;;;;;;9.00;9.00;;;;;27.51;36.77;99253.00;6245225;27;97930;-57
2022/08/11 17:26:03;;;;;;;;;23.20;23.20;;;;;27.38;37.68;99253.94;6223068;28;97332;-55
2022/08/11 17:29:07;;;;;;;;;21.75;21.25;;;;;27.36;37.92;99255.41;6234243;28;98588;-57
2022/08/11 17:36:00;;;;;;;;;23.50;23.50;;;;;27.26;38.00;99256.53;6232279;28;97479;-56
2022/08/11 17:39:03;;;;;;;;;15.80;15.80;;;;;27.22;38.34;99258.28;6226875;28;97993;-57
2022/08/11 17:48:53;;;;;;;;;17.50;17.50;;;;;26.85;39.87;99276.22;6226523;28;97390;-58
2022/08/11 18:05:44;;;;;;;;;14.60;14.60;;;;;26.38;41.19;99288.03;6229897;27;97200;-58
